Laval, Canada
Current Conditions -  °F | °C
As of 2:00 PM on Thursday 30 Oct 2014 (Local Time) from CYUL Reporting Station
Broken Clouds Broken Clouds  
Wind Chill: 42°   Ceiling: 4500
Heat Index: 48°   Visibility: 15mi
Dew Point: 32°   Wind: 15mph
Humidity: 54%   Direction: 260°W
Pressure: 29.96"   Gusts: 22mph
Location:  45.55°N, 73.74°W
Report Text: CYUL 301800Z 26013G19KT 15SM BKN045 BKN240 09/00 A2996 RMK SC7CI1 CI TR SLP147
Loading
Personal Weather Stations






























Interactive Weather Map
Tropical Storm Tracking
New forecast layout! Learn more

10-Day Weather Forecast

Advertisements
Track Severe Weather on mobile